Time;durP1;ratioP1;P1;durP2;ratioP2;P2;SDS_P1;SDS_P2;PMS_P1;PMS_P2;Temp;Humidity;BMP_temperature;BMP_pressure;BME280_temperature;BME280_humidity;BME280_pressure;Samples;Min_cycle;Max_cycle;Signal;HPM_P1;HPM_P2
2022/08/20 00:00:22;;;;;;;28.15;13.73;;;20.00;99.90;;;;;;4295463;28;657141;-87
2022/08/20 00:03:11;;;;;;;28.27;13.40;;;20.00;99.90;;;;;;4326017;28;656237;-87
2022/08/20 00:06:00;;;;;;;21.67;13.33;;;20.00;99.90;;;;;;4307358;28;656879;-87
2022/08/20 00:08:47;;;;;;;25.97;12.97;;;20.00;99.90;;;;;;4304457;28;657311;-87
2022/08/20 00:11:36;;;;;;;22.10;13.03;;;20.00;99.90;;;;;;4320213;28;657069;-87
2022/08/20 00:14:23;;;;;;;26.00;12.80;;;19.90;99.90;;;;;;4304131;28;657555;-87
2022/08/20 00:17:10;;;;;;;187.80;15.73;;;19.90;99.90;;;;;;4302992;28;656598;-86
2022/08/20 00:19:57;;;;;;;85.70;13.97;;;19.90;99.90;;;;;;4329327;28;657559;-87
2022/08/20 00:22:44;;;;;;;22.80;13.37;;;19.80;99.90;;;;;;4331882;28;656234;-87
2022/08/20 00:25:32;;;;;;;23.37;13.47;;;19.80;99.90;;;;;;4313115;28;656917;-87
2022/08/20 00:28:20;;;;;;;27.40;14.43;;;19.80;99.90;;;;;;4331489;28;656619;-88
2022/08/20 00:31:09;;;;;;;25.27;14.43;;;19.80;99.90;;;;;;4305114;28;656440;-87
2022/08/20 00:33:56;;;;;;;24.50;13.63;;;19.80;99.90;;;;;;4306921;28;656764;-88
2022/08/20 00:36:43;;;;;;;24.20;13.27;;;19.80;99.90;;;;;;4330702;28;656377;-88
2022/08/20 00:39:30;;;;;;;25.03;12.97;;;19.80;99.90;;;;;;4304051;28;656635;-87
2022/08/20 00:42:17;;;;;;;21.70;12.37;;;19.70;99.90;;;;;;4326595;28;657344;-88
2022/08/20 00:45:07;;;;;;;29.07;12.90;;;19.60;99.90;;;;;;4323382;28;656797;-87
2022/08/20 00:47:55;;;;;;;21.65;11.95;;;19.60;99.90;;;;;;4328116;28;656800;-88
2022/08/20 00:50:42;;;;;;;19.33;12.57;;;19.60;99.90;;;;;;4295778;28;657121;-87
2022/08/20 00:53:29;;;;;;;25.97;12.03;;;19.60;99.90;;;;;;4326576;28;656720;-87
2022/08/20 00:56:17;;;;;;;23.80;11.60;;;19.60;99.90;;;;;;4300784;28;657784;-87
2022/08/20 00:59:06;;;;;;;19.83;11.77;;;19.60;99.90;;;;;;4329914;28;657739;-87
2022/08/20 01:01:56;;;;;;;21.57;11.60;;;19.50;99.90;;;;;;4306453;28;657700;-87
2022/08/20 01:04:45;;;;;;;36.00;12.10;;;19.50;99.90;;;;;;4301073;28;658039;-87
2022/08/20 01:07:33;;;;;;;30.17;11.73;;;19.40;99.90;;;;;;4298393;28;658064;-87
2022/08/20 01:10:21;;;;;;;27.97;11.73;;;19.30;99.90;;;;;;4302687;28;657751;-87
2022/08/20 01:13:13;;;;;;;17.83;11.87;;;19.30;99.90;;;;;;4315053;28;657482;-87
2022/08/20 01:16:02;;;;;;;21.33;12.10;;;19.30;99.90;;;;;;4284211;28;657981;-87
2022/08/20 01:18:51;;;;;;;20.97;11.67;;;19.30;99.90;;;;;;4327168;28;657398;-88
2022/08/20 01:21:38;;;;;;;76.50;12.60;;;19.30;99.90;;;;;;4306761;28;658319;-87
2022/08/20 01:24:27;;;;;;;21.87;10.40;;;19.10;99.90;;;;;;4310978;28;657655;-88
2022/08/20 01:27:16;;;;;;;22.90;11.37;;;19.00;99.90;;;;;;4307606;28;657787;-86
2022/08/20 01:30:04;;;;;;;21.63;11.70;;;19.10;99.90;;;;;;4310697;28;657778;-88
2022/08/20 01:32:52;;;;;;;16.83;11.87;;;19.10;99.90;;;;;;4303181;28;658673;-88
2022/08/20 01:35:40;;;;;;;25.33;11.20;;;19.10;99.90;;;;;;4322697;28;657433;-89
2022/08/20 01:38:27;;;;;;;18.20;11.80;;;19.00;99.90;;;;;;4297241;28;658221;-89
2022/08/20 01:41:30;;;;;;;17.70;9.90;;;19.00;99.90;;;;;;4323094;28;658263;-89
2022/08/20 01:44:18;;;;;;;18.13;10.33;;;19.10;99.90;;;;;;4294425;28;657048;-87
2022/08/20 01:47:11;;;;;;;26.60;10.80;;;19.10;99.90;;;;;;4311110;28;657668;-87
2022/08/20 01:50:00;;;;;;;19.70;10.50;;;19.10;99.90;;;;;;4294745;28;658162;-87
2022/08/20 01:52:51;;;;;;;21.13;11.10;;;19.10;99.90;;;;;;4303082;28;658029;-87
2022/08/20 01:55:38;;;;;;;25.00;10.70;;;19.10;99.90;;;;;;4300785;28;657576;-89
2022/08/20 01:58:28;;;;;;;21.20;11.13;;;19.00;99.90;;;;;;4308539;28;657866;-87
2022/08/20 02:01:21;;;;;;;22.60;9.93;;;19.00;99.90;;;;;;4304424;28;657566;-87
2022/08/20 02:04:09;;;;;;;20.67;9.85;;;18.90;99.90;;;;;;4296049;28;656445;-87
2022/08/20 02:06:58;;;;;;;248.87;14.50;;;19.00;99.90;;;;;;4302762;28;657258;-86
2022/08/20 02:09:46;;;;;;;24.40;10.37;;;18.90;99.90;;;;;;4316471;28;658435;-87
2022/08/20 02:12:34;;;;;;;24.67;9.97;;;18.90;99.90;;;;;;4329045;28;657461;-87
2022/08/20 02:15:21;;;;;;;47.67;9.90;;;18.90;99.90;;;;;;4309719;28;656772;-87
2022/08/20 02:18:11;;;;;;;16.57;9.17;;;18.80;99.90;;;;;;4324498;28;657607;-87
2022/08/20 02:20:58;;;;;;;24.80;9.50;;;18.60;99.90;;;;;;4308120;28;657148;-87
2022/08/20 02:23:45;;;;;;;18.20;8.23;;;18.70;99.90;;;;;;4305170;28;656900;-87
2022/08/20 02:26:36;;;;;;;21.43;9.37;;;18.70;99.90;;;;;;4325737;28;657869;-88
2022/08/20 02:29:24;;;;;;;23.40;8.37;;;18.70;99.90;;;;;;4289897;28;657368;-88
2022/08/20 02:32:12;;;;;;;25.13;9.57;;;18.70;99.90;;;;;;4303156;28;657045;-88
2022/08/20 02:35:02;;;;;;;27.90;9.50;;;18.60;99.90;;;;;;4335928;28;656107;-88
2022/08/20 02:37:49;;;;;;;18.00;9.17;;;18.60;99.90;;;;;;4308845;28;656785;-88
2022/08/20 02:40:36;;;;;;;19.60;9.37;;;18.50;99.90;;;;;;4303357;28;656622;-88
2022/08/20 02:43:23;;;;;;;18.23;8.90;;;18.50;99.90;;;;;;4330163;28;657647;-87
2022/08/20 02:46:10;;;;;;;25.43;9.20;;;18.50;99.90;;;;;;4300244;28;656800;-86
2022/08/20 02:48:58;;;;;;;10.90;7.53;;;18.50;99.90;;;;;;4326707;28;657836;-86
2022/08/20 02:51:46;;;;;;;15.33;7.67;;;18.50;99.90;;;;;;4306902;28;656303;-86
2022/08/20 02:54:34;;;;;;;16.17;7.40;;;18.50;99.90;;;;;;4326721;28;656953;-87
2022/08/20 02:57:21;;;;;;;13.50;7.10;;;18.40;99.90;;;;;;4299287;28;657085;-87
2022/08/20 03:00:09;;;;;;;20.20;7.30;;;18.20;99.90;;;;;;4316575;28;656559;-87
2022/08/20 03:02:57;;;;;;;14.20;7.20;;;18.00;99.90;;;;;;4301380;28;657290;-87
2022/08/20 03:05:44;;;;;;;19.10;7.07;;;18.00;99.90;;;;;;4330111;28;656802;-87
2022/08/20 03:08:33;;;;;;;20.97;6.93;;;18.00;99.90;;;;;;4309404;28;656667;-87
2022/08/20 03:11:20;;;;;;;19.30;7.40;;;18.00;99.90;;;;;;4305355;28;656700;-86
2022/08/20 03:14:07;;;;;;;15.60;8.20;;;18.10;99.90;;;;;;4330639;28;656710;-87
2022/08/20 03:16:54;;;;;;;19.70;7.27;;;18.00;99.90;;;;;;4332654;28;655965;-87
2022/08/20 03:19:42;;;;;;;16.57;6.83;;;17.90;99.90;;;;;;4307681;28;656746;-87
2022/08/20 03:22:29;;;;;;;17.43;7.53;;;17.80;99.90;;;;;;4328899;28;656584;-87
2022/08/20 03:25:17;;;;;;;18.40;7.60;;;17.70;99.90;;;;;;4304471;28;656524;-87
2022/08/20 03:28:05;;;;;;;10.63;6.83;;;17.70;99.90;;;;;;4335710;28;655999;-87
2022/08/20 03:30:53;;;;;;;21.87;7.00;;;17.70;99.90;;;;;;4303551;28;657350;-87
2022/08/20 03:33:40;;;;;;;19.33;6.20;;;17.70;99.90;;;;;;4308437;28;656530;-87
2022/08/20 03:36:28;;;;;;;23.00;7.23;;;17.70;99.90;;;;;;4324958;28;657191;-86
2022/08/20 03:39:15;;;;;;;17.47;6.77;;;17.80;99.90;;;;;;4326973;28;656642;-86
2022/08/20 03:42:04;;;;;;;19.67;6.82;;;17.90;99.90;;;;;;4330140;28;656391;-87
2022/08/20 03:44:52;;;;;;;14.67;7.10;;;17.90;99.90;;;;;;4308529;28;656354;-87
2022/08/20 03:47:39;;;;;;;24.80;6.43;;;17.80;99.90;;;;;;4322746;28;656866;-86
2022/08/20 03:50:27;;;;;;;17.50;6.20;;;17.90;99.90;;;;;;4306598;28;656560;-86
2022/08/20 03:53:15;;;;;;;16.80;6.70;;;17.90;99.90;;;;;;4324817;28;656322;-86
2022/08/20 03:56:04;;;;;;;25.23;6.37;;;17.90;99.90;;;;;;4324540;28;657028;-87
2022/08/20 03:58:52;;;;;;;14.50;6.63;;;17.90;99.90;;;;;;4311035;28;656812;-87
2022/08/20 04:01:39;;;;;;;15.53;7.30;;;17.90;99.90;;;;;;4327537;28;657018;-87
2022/08/20 04:04:27;;;;;;;17.90;6.33;;;17.90;99.90;;;;;;4309364;28;656698;-86
2022/08/20 04:07:15;;;;;;;15.40;6.43;;;18.00;99.90;;;;;;4327657;28;656383;-87
2022/08/20 04:10:04;;;;;;;12.77;6.40;;;18.00;99.90;;;;;;4306431;28;657485;-86
2022/08/20 04:12:52;;;;;;;19.50;7.67;;;18.00;99.90;;;;;;4308903;28;656842;-87
2022/08/20 04:15:40;;;;;;;20.10;6.40;;;18.00;99.90;;;;;;4332667;28;656353;-87
2022/08/20 04:18:27;;;;;;;15.77;7.00;;;17.90;99.90;;;;;;4303384;28;656961;-87
2022/08/20 04:21:14;;;;;;;15.57;6.67;;;18.00;99.90;;;;;;4331755;28;656683;-87
2022/08/20 04:24:02;;;;;;;14.30;6.57;;;18.10;99.90;;;;;;4305860;28;657384;-86
2022/08/20 04:26:49;;;;;;;11.67;6.80;;;18.20;99.90;;;;;;4325535;28;656972;-86
2022/08/20 04:29:36;;;;;;;12.50;6.97;;;18.20;99.90;;;;;;4307192;28;656715;-86
2022/08/20 04:32:25;;;;;;;16.60;7.07;;;18.20;99.90;;;;;;4319381;28;657138;-86
2022/08/20 04:35:14;;;;;;;16.70;7.20;;;18.30;99.90;;;;;;4299301;28;657082;-87
2022/08/20 04:38:03;;;;;;;20.87;7.73;;;18.30;99.90;;;;;;4302607;28;656757;-87
2022/08/20 04:40:56;;;;;;;18.33;7.83;;;18.40;99.90;;;;;;4318844;28;656485;-87
2022/08/20 04:43:43;;;;;;;23.10;7.10;;;18.50;99.90;;;;;;4299510;28;657715;-87
2022/08/20 04:46:31;;;;;;;13.87;7.50;;;18.30;99.90;;;;;;4303834;28;656862;-86
2022/08/20 04:49:25;;;;;;;18.53;6.97;;;18.50;99.90;;;;;;4327582;28;656719;-87
2022/08/20 04:52:12;;;;;;;18.93;7.63;;;18.60;99.90;;;;;;4301310;28;656842;-86
2022/08/20 04:54:59;;;;;;;16.00;6.93;;;18.80;99.90;;;;;;4327315;28;656556;-87
2022/08/20 04:57:46;;;;;;;20.57;7.93;;;18.90;99.90;;;;;;4311331;28;656291;-86
2022/08/20 05:00:33;;;;;;;16.03;8.00;;;19.00;99.90;;;;;;4323680;28;656921;-87
2022/08/20 05:03:21;;;;;;;18.47;8.93;;;19.10;99.90;;;;;;4303287;28;656806;-87
2022/08/20 05:06:10;;;;;;;18.90;9.37;;;19.10;99.90;;;;;;4329944;28;656822;-87
2022/08/20 05:08:58;;;;;;;22.90;10.93;;;19.30;99.90;;;;;;4305452;28;657488;-87
2022/08/20 05:11:45;;;;;;;19.43;10.43;;;19.50;99.90;;;;;;4306207;28;658121;-87
2022/08/20 05:14:33;;;;;;;23.50;10.90;;;19.70;99.90;;;;;;4325047;28;659263;-87
2022/08/20 05:17:22;;;;;;;24.67;11.20;;;20.00;99.90;;;;;;4319353;28;657654;-87
2022/08/20 05:20:11;;;;;;;23.67;11.30;;;20.10;99.90;;;;;;4325386;28;657592;-86
2022/08/20 05:23:00;;;;;;;22.63;10.70;;;20.20;99.90;;;;;;4299533;28;657502;-87
2022/08/20 05:25:50;;;;;;;23.00;10.90;;;20.20;99.90;;;;;;4305204;28;657850;-88
2022/08/20 05:28:37;;;;;;;21.97;12.10;;;20.20;99.90;;;;;;4297879;28;658121;-87
2022/08/20 05:31:25;;;;;;;26.87;12.53;;;20.10;99.90;;;;;;4320046;28;657959;-89
2022/08/20 05:34:12;;;;;;;20.70;11.77;;;20.20;99.90;;;;;;4315741;28;659104;-88
2022/08/20 05:37:03;;;;;;;22.00;12.00;;;20.50;99.90;;;;;;4322173;28;657701;-87
2022/08/20 05:39:52;;;;;;;28.03;12.30;;;20.70;99.90;;;;;;4309730;28;657391;-87
2022/08/20 05:42:39;;;;;;;28.30;12.10;;;20.80;99.90;;;;;;4328461;28;657927;-87
2022/08/20 05:45:26;;;;;;;24.30;12.00;;;20.90;99.90;;;;;;4301639;28;657798;-86
2022/08/20 05:48:14;;;;;;;22.23;12.10;;;21.00;99.90;;;;;;4321664;28;657874;-86
2022/08/20 05:51:01;;;;;;;20.30;11.70;;;21.30;99.90;;;;;;4297290;28;657736;-87
2022/08/20 05:53:48;;;;;;;22.27;11.63;;;21.40;99.90;;;;;;4330136;28;658111;-87
2022/08/20 05:56:37;;;;;;;21.77;13.27;;;21.30;99.90;;;;;;4304015;28;657881;-86
2022/08/20 05:59:24;;;;;;;27.50;13.23;;;21.40;99.90;;;;;;4319527;28;657704;-87
2022/08/20 06:05:13;;;;;;;23.67;12.70;;;21.30;99.90;;;;;;4301350;28;657343;-87
2022/08/20 06:08:00;;;;;;;19.30;12.77;;;21.20;99.90;;;;;;4306639;28;658014;-87
2022/08/20 06:10:47;;;;;;;25.10;13.47;;;21.20;99.90;;;;;;4313638;28;658100;-87
2022/08/20 06:13:36;;;;;;;20.03;12.07;;;21.40;99.90;;;;;;4319095;28;658006;-86
2022/08/20 06:16:24;;;;;;;25.00;11.43;;;21.60;99.90;;;;;;4322852;28;657505;-87
2022/08/20 06:19:12;;;;;;;20.63;12.63;;;21.50;99.90;;;;;;4303938;28;658841;-86
2022/08/20 06:21:59;;;;;;;20.47;11.80;;;21.60;99.90;;;;;;4321640;28;657673;-88
2022/08/20 06:24:47;;;;;;;23.40;11.80;;;21.70;99.90;;;;;;4305996;28;657582;-88
2022/08/20 06:27:34;;;;;;;20.40;11.73;;;21.70;99.90;;;;;;4286208;28;657611;-87
2022/08/20 06:30:22;;;;;;;23.13;12.37;;;21.70;99.90;;;;;;4299963;28;657460;-87
2022/08/20 06:33:09;;;;;;;20.83;12.13;;;21.80;99.90;;;;;;4323613;28;657289;-87
2022/08/20 06:35:56;;;;;;;21.57;11.63;;;21.80;99.90;;;;;;4312634;28;657697;-87
2022/08/20 06:38:45;;;;;;;20.37;11.33;;;21.80;99.90;;;;;;4329759;28;658051;-88
2022/08/20 06:41:32;;;;;;;22.30;11.10;;;21.80;99.90;;;;;;4303019;28;658410;-87
2022/08/20 06:44:19;;;;;;;20.50;11.03;;;21.70;99.90;;;;;;4325829;28;657749;-87
2022/08/20 06:47:08;;;;;;;21.10;10.67;;;21.70;99.90;;;;;;4306361;28;657812;-87
2022/08/20 06:49:55;;;;;;;20.17;9.97;;;21.70;99.90;;;;;;4307678;28;657737;-87
2022/08/20 06:52:42;;;;;;;16.87;10.50;;;21.80;99.90;;;;;;4336208;28;657080;-87
2022/08/20 06:55:29;;;;;;;20.27;10.10;;;21.80;99.90;;;;;;4331751;28;658084;-87
2022/08/20 06:58:17;;;;;;;21.00;10.13;;;21.90;99.90;;;;;;4302015;28;657584;-87
2022/08/20 07:01:06;;;;;;;20.03;10.17;;;22.20;99.90;;;;;;4322439;28;657335;-87
2022/08/20 07:03:57;;;;;;;20.10;10.70;;;22.30;99.90;;;;;;4326560;28;658262;-87
2022/08/20 07:06:44;;;;;;;18.70;10.07;;;22.50;99.90;;;;;;4311568;28;657371;-88
2022/08/20 07:09:31;;;;;;;20.77;10.77;;;22.60;99.90;;;;;;4304322;28;657499;-87
2022/08/20 07:12:19;;;;;;;22.43;10.30;;;22.60;99.90;;;;;;4330882;28;657916;-87
2022/08/20 07:15:07;;;;;;;18.23;10.47;;;22.70;99.90;;;;;;4305684;28;657678;-87
2022/08/20 07:17:57;;;;;;;19.13;10.20;;;22.90;99.90;;;;;;4329022;28;657714;-87
2022/08/20 07:20:46;;;;;;;23.00;10.20;;;22.90;99.90;;;;;;4308107;28;657936;-87
2022/08/20 07:23:33;;;;;;;19.97;9.37;;;22.90;99.90;;;;;;4296679;28;657731;-87
2022/08/20 07:26:20;;;;;;;20.57;9.93;;;23.00;99.90;;;;;;4308869;28;656855;-88
2022/08/20 07:29:08;;;;;;;17.53;9.73;;;23.30;99.90;;;;;;4328278;28;656919;-87
2022/08/20 07:35:00;;;;;;;17.10;8.50;;;23.90;99.90;;;;;;4299566;28;657088;-88
2022/08/20 07:37:50;;;;;;;17.57;8.27;;;23.90;99.90;;;;;;4330802;28;658073;-89
2022/08/20 07:40:37;;;;;;;18.98;7.95;;;24.10;99.90;;;;;;4303177;28;656568;-89
2022/08/20 07:43:25;;;;;;;17.53;8.13;;;24.00;99.90;;;;;;4326446;28;656303;-89
2022/08/20 07:46:12;;;;;;;14.87;7.87;;;23.90;99.90;;;;;;4307176;28;657694;-89
2022/08/20 07:48:59;;;;;;;17.30;8.30;;;24.20;99.90;;;;;;4329921;28;656505;-89
2022/08/20 07:51:46;;;;;;;15.98;8.23;;;24.90;99.90;;;;;;4302935;28;656534;-88
2022/08/20 07:54:36;;;;;;;21.48;8.07;;;24.90;99.90;;;;;;4328085;28;656604;-89
2022/08/20 07:57:24;;;;;;;16.88;8.00;;;25.10;99.90;;;;;;4305795;28;656465;-87
2022/08/20 08:00:13;;;;;;;13.52;7.85;;;25.10;99.90;;;;;;4305665;28;656444;-88
2022/08/20 08:03:01;;;;;;;14.45;7.57;;;25.10;99.90;;;;;;4300969;28;656900;-88
2022/08/20 08:05:49;;;;;;;17.77;7.60;;;25.20;99.90;;;;;;4325334;28;657185;-88
2022/08/20 08:08:36;;;;;;;15.93;7.80;;;25.40;99.90;;;;;;4303110;28;656968;-88
2022/08/20 08:11:25;;;;;;;16.77;7.45;;;25.40;99.90;;;;;;4323956;28;656665;-89
2022/08/20 08:14:12;;;;;;;13.77;7.88;;;25.40;99.90;;;;;;4310048;28;656551;-90
2022/08/20 08:17:03;;;;;;;15.68;7.68;;;25.50;99.90;;;;;;4327984;28;656183;-93
2022/08/20 08:19:50;;;;;;;13.88;7.32;;;25.60;99.90;;;;;;4317226;28;656479;-93
2022/08/20 08:22:41;;;;;;;18.17;8.05;;;25.90;99.90;;;;;;4325563;28;656996;-91
2022/08/20 08:25:29;;;;;;;14.48;7.55;;;26.00;99.90;;;;;;4301669;28;656803;-91
2022/08/20 08:28:20;;;;;;;16.83;7.33;;;25.80;99.90;;;;;;4237558;28;657002;-94
2022/08/20 08:31:14;;;;;;;19.15;7.65;;;26.10;99.90;;;;;;4264971;28;657953;-92
2022/08/20 08:34:02;;;;;;;16.60;8.30;;;25.90;99.90;;;;;;4259918;29;657280;-94
2022/08/20 08:37:04;;;;;;;15.68;8.10;;;25.90;99.90;;;;;;4336477;28;656615;-93
2022/08/20 08:39:54;;;;;;;15.68;7.57;;;25.70;99.90;;;;;;4272935;28;656381;-91
2022/08/20 08:42:51;;;;;;;18.00;7.47;;;26.00;99.90;;;;;;4251428;28;656675;-91
2022/08/20 08:45:42;;;;;;;15.80;8.02;;;26.30;99.90;;;;;;4265349;28;657052;-90
2022/08/20 08:48:37;;;;;;;15.27;6.72;;;26.50;99.90;;;;;;4283470;28;657459;-92
2022/08/20 08:51:28;;;;;;;21.27;8.05;;;26.30;99.90;;;;;;4249201;29;656907;-94
2022/08/20 08:54:17;;;;;;;15.27;7.97;;;25.70;99.90;;;;;;4231088;29;656740;-94
2022/08/20 08:57:06;;;;;;;16.10;8.30;;;25.30;99.90;;;;;;4274686;29;657327;-91
2022/08/20 09:00:01;;;;;;;14.90;8.07;;;25.10;99.90;;;;;;4260554;28;657741;-94
2022/08/20 09:03:04;;;;;;;16.02;7.45;;;25.00;99.90;;;;;;4240800;28;656867;-93
2022/08/20 09:05:57;;;;;;;22.07;8.50;;;24.70;99.90;;;;;;4257954;28;656716;-94
2022/08/20 09:08:48;;;;;;;17.25;7.35;;;24.80;99.90;;;;;;4289553;28;657994;-96
2022/08/20 09:11:45;;;;;;;16.73;7.67;;;24.80;99.90;;;;;;4281587;28;656582;-92
2022/08/20 09:14:35;;;;;;;15.93;7.80;;;24.60;99.90;;;;;;4253793;28;656803;-93
2022/08/20 09:17:25;;;;;;;16.10;8.13;;;24.30;99.90;;;;;;4300815;28;657306;-92
2022/08/20 09:20:17;;;;;;;17.40;7.57;;;24.60;99.90;;;;;;4240779;29;656655;-93
2022/08/20 09:23:06;;;;;;;19.95;8.10;;;24.90;99.90;;;;;;4192149;28;657071;-93
2022/08/20 09:25:53;;;;;;;17.85;8.05;;;25.00;99.90;;;;;;4251778;29;656384;-93
2022/08/20 09:28:43;;;;;;;16.40;8.00;;;25.50;99.90;;;;;;4286578;28;656661;-90
2022/08/20 09:31:31;;;;;;;17.10;8.20;;;25.90;99.90;;;;;;4246212;28;656451;-94
2022/08/20 09:34:20;;;;;;;19.58;9.88;;;26.90;99.90;;;;;;4271584;28;657813;-93
2022/08/20 09:37:09;;;;;;;21.40;11.35;;;27.70;99.90;;;;;;4258403;28;657215;-93
2022/08/20 09:39:56;;;;;;;21.70;9.55;;;28.20;99.90;;;;;;4254228;28;658080;-93
2022/08/20 09:42:44;;;;;;;21.05;8.75;;;27.60;99.90;;;;;;4306132;28;657997;-93
2022/08/20 09:45:42;;;;;;;18.00;8.25;;;27.60;99.90;;;;;;4282480;28;656424;-93
2022/08/20 09:48:30;;;;;;;22.75;9.25;;;27.70;99.90;;;;;;4284429;28;656433;-93
2022/08/20 09:51:17;;;;;;;16.63;8.20;;;27.80;99.90;;;;;;4286910;28;656928;-94
2022/08/20 09:54:06;;;;;;;16.13;8.52;;;28.20;99.90;;;;;;4316408;28;656270;-93
2022/08/20 09:56:53;;;;;;;19.55;8.10;;;28.10;99.90;;;;;;4268719;28;656933;-92
2022/08/20 09:59:41;;;;;;;19.15;8.18;;;28.50;99.90;;;;;;4289001;28;656445;-93
2022/08/20 10:02:28;;;;;;;17.92;8.45;;;27.90;99.90;;;;;;4307609;28;657602;-94
2022/08/20 10:05:15;;;;;;;15.63;8.45;;;27.90;99.90;;;;;;4287295;28;657396;-93
2022/08/20 10:11:08;;;;;;;19.42;8.45;;;28.40;99.90;;;;;;4270529;28;656776;-90
2022/08/20 10:14:08;;;;;;;17.55;8.27;;;29.10;99.90;;;;;;4303769;28;656257;-92
2022/08/20 10:16:56;;;;;;;19.10;8.45;;;29.00;99.90;;;;;;4265650;28;656918;-94
2022/08/20 10:19:44;;;;;;;15.70;8.00;;;29.20;99.90;;;;;;4313310;28;657476;-93
2022/08/20 10:22:32;;;;;;;16.33;7.83;;;29.50;99.90;;;;;;4284670;28;657089;-93
2022/08/20 10:25:20;;;;;;;16.77;8.50;;;30.20;99.90;;;;;;4317051;28;656449;-93
2022/08/20 10:28:09;;;;;;;14.30;8.27;;;29.00;99.90;;;;;;4292923;28;657877;-93
2022/08/20 10:30:59;;;;;;;18.13;8.50;;;29.50;99.90;;;;;;4221335;29;657816;-92
2022/08/20 10:34:09;;;;;;;13.07;7.97;;;29.90;99.90;;;;;;4272212;28;658041;-93
2022/08/20 10:36:59;;;;;;;22.42;9.20;;;29.90;99.90;;;;;;4286010;28;657359;-92
2022/08/20 10:39:47;;;;;;;19.63;9.25;;;30.00;99.90;;;;;;4291804;28;656593;-93
2022/08/20 10:42:34;;;;;;;20.02;8.95;;;30.40;99.90;;;;;;4328837;28;657115;-94
2022/08/20 10:45:24;;;;;;;22.08;9.02;;;30.70;99.90;;;;;;4265720;28;656788;-94
2022/08/20 10:48:11;;;;;;;21.53;8.80;;;31.00;99.90;;;;;;4197100;28;658259;-93
2022/08/20 10:50:59;;;;;;;16.77;8.75;;;31.10;99.90;;;;;;4274363;28;657224;-93
2022/08/20 10:53:47;;;;;;;17.80;8.57;;;30.50;99.90;;;;;;4305777;28;656564;-91
2022/08/20 10:56:34;;;;;;;16.38;8.10;;;31.00;99.90;;;;;;4323495;28;656820;-91
2022/08/20 10:59:21;;;;;;;18.50;9.00;;;31.00;99.90;;;;;;4304890;28;657395;-92
2022/08/20 11:02:09;;;;;;;22.17;8.90;;;31.30;99.90;;;;;;4331029;28;656950;-92
2022/08/20 11:04:57;;;;;;;16.35;8.00;;;32.00;99.90;;;;;;4311099;28;656747;-91
2022/08/20 11:07:44;;;;;;;17.90;7.95;;;32.40;97.90;;;;;;4331158;28;656726;-91
2022/08/20 11:10:32;;;;;;;15.40;8.02;;;32.20;95.30;;;;;;4313151;28;656449;-88
2022/08/20 11:13:21;;;;;;;16.50;8.05;;;32.10;93.50;;;;;;4329875;28;656880;-88
2022/08/20 11:16:08;;;;;;;15.15;8.27;;;31.60;99.30;;;;;;4330699;28;657270;-88
2022/08/20 11:18:57;;;;;;;13.60;7.70;;;31.20;99.90;;;;;;4308456;28;656807;-89
2022/08/20 11:21:44;;;;;;;17.52;7.90;;;31.00;98.50;;;;;;4331547;28;656686;-89
2022/08/20 11:24:31;;;;;;;17.92;7.85;;;30.60;98.90;;;;;;4309662;28;656374;-89
2022/08/20 11:27:21;;;;;;;10.98;6.80;;;30.60;99.30;;;;;;4329561;28;657341;-89
2022/08/20 11:30:12;;;;;;;16.70;6.45;;;31.10;95.60;;;;;;4303999;28;656621;-88
2022/08/20 11:32:59;;;;;;;15.30;6.00;;;31.70;93.90;;;;;;4296905;28;656624;-89
2022/08/20 11:35:48;;;;;;;13.30;6.50;;;31.90;85.70;;;;;;4306120;28;656455;-89
2022/08/20 11:38:35;;;;;;;12.63;6.18;;;31.90;86.50;;;;;;4313957;28;656949;-89
2022/08/20 11:41:22;;;;;;;13.07;5.83;;;31.70;82.00;;;;;;4325664;28;656854;-89
2022/08/20 11:44:09;;;;;;;15.82;6.45;;;31.60;84.90;;;;;;4327552;28;656998;-89
2022/08/20 11:47:02;;;;;;;9.43;6.50;;;31.80;86.40;;;;;;4297047;28;656825;-88
2022/08/20 11:49:56;;;;;;;19.58;8.98;;;31.80;79.00;;;;;;4310071;28;656132;-88
2022/08/20 11:52:44;;;;;;;18.75;9.13;;;31.10;94.00;;;;;;4296069;28;656932;-89
2022/08/20 11:55:31;;;;;;;23.42;11.10;;;29.60;99.90;;;;;;4317759;28;656757;-90
2022/08/20 11:58:19;;;;;;;25.33;10.57;;;28.20;99.90;;;;;;4332538;28;657783;-88
2022/08/20 12:01:06;;;;;;;31.50;11.05;;;27.70;99.90;;;;;;4287588;28;657509;-88
2022/08/20 12:03:53;;;;;;;21.88;10.63;;;27.50;99.90;;;;;;4324701;28;657701;-89
2022/08/20 12:06:41;;;;;;;28.65;10.32;;;27.20;99.90;;;;;;4314974;28;657606;-90
2022/08/20 12:09:30;;;;;;;21.17;10.60;;;26.50;99.90;;;;;;4318145;28;658311;-90
2022/08/20 12:12:18;;;;;;;33.47;12.27;;;26.00;99.90;;;;;;4304636;28;657388;-89
2022/08/20 12:15:06;;;;;;;31.17;14.48;;;26.00;99.90;;;;;;4324376;28;657484;-89
2022/08/20 12:17:53;;;;;;;39.45;13.43;;;25.50;99.90;;;;;;4307005;28;658066;-91
2022/08/20 12:20:41;;;;;;;35.78;13.18;;;25.00;99.90;;;;;;4308853;28;657757;-89
2022/08/20 12:23:28;;;;;;;34.90;14.20;;;24.70;99.90;;;;;;4332718;28;657615;-90
2022/08/20 12:26:17;;;;;;;32.42;14.50;;;24.20;99.90;;;;;;4302713;28;658025;-89
2022/08/20 12:29:04;;;;;;;41.90;16.47;;;24.10;99.90;;;;;;4323865;28;657806;-89
2022/08/20 12:31:51;;;;;;;42.80;13.75;;;24.10;99.90;;;;;;4304000;28;657788;-92
2022/08/20 12:34:39;;;;;;;35.45;11.93;;;24.10;99.90;;;;;;4333041;28;658166;-90
2022/08/20 12:37:27;;;;;;;34.67;11.20;;;24.30;99.90;;;;;;4297497;28;657815;-90
2022/08/20 12:40:16;;;;;;;26.20;10.43;;;24.30;99.90;;;;;;4317707;28;657395;-90
2022/08/20 12:43:05;;;;;;;29.67;10.70;;;24.30;99.90;;;;;;4313457;28;657915;-91
2022/08/20 12:45:52;;;;;;;22.33;8.98;;;24.30;99.90;;;;;;4301109;28;657490;-90
2022/08/20 12:48:39;;;;;;;27.38;9.85;;;24.30;99.90;;;;;;4305116;29;656404;-90
2022/08/20 12:51:26;;;;;;;23.83;8.07;;;24.30;99.90;;;;;;4275737;29;657016;-90
2022/08/20 12:54:13;;;;;;;25.42;8.43;;;24.00;99.90;;;;;;4311745;29;656849;-90
2022/08/20 12:57:01;;;;;;;26.38;7.95;;;24.00;99.90;;;;;;4292419;29;656988;-90
2022/08/20 12:59:49;;;;;;;23.13;7.65;;;23.80;99.90;;;;;;4303137;29;657165;-89
2022/08/20 13:02:37;;;;;;;23.25;7.43;;;23.80;99.90;;;;;;4286875;29;656608;-90
2022/08/20 13:05:24;;;;;;;25.10;6.95;;;23.70;99.90;;;;;;4313414;29;656307;-90
2022/08/20 13:08:11;;;;;;;16.47;6.53;;;23.60;99.90;;;;;;4280594;29;656627;-89
2022/08/20 13:10:59;;;;;;;21.20;6.60;;;23.30;99.90;;;;;;4304999;29;656299;-89
2022/08/20 13:13:46;;;;;;;18.20;6.30;;;23.30;99.90;;;;;;4291527;29;657194;-89
2022/08/20 13:16:35;;;;;;;20.40;6.40;;;23.10;99.90;;;;;;4311234;29;656942;-90
2022/08/20 13:19:22;;;;;;;19.00;6.80;;;22.90;99.90;;;;;;4282010;29;657768;-89
2022/08/20 13:22:09;;;;;;;18.77;6.73;;;22.90;99.90;;;;;;4310401;29;656742;-90
2022/08/20 13:24:56;;;;;;;31.53;8.80;;;22.90;99.90;;;;;;4290763;29;657078;-90
2022/08/20 13:27:44;;;;;;;27.63;8.77;;;22.90;99.90;;;;;;4310309;29;658036;-89
2022/08/20 13:30:31;;;;;;;21.83;8.45;;;22.70;99.90;;;;;;4287253;29;656362;-89
2022/08/20 13:33:20;;;;;;;25.60;7.73;;;22.60;99.90;;;;;;4300361;29;657039;-90
2022/08/20 13:36:08;;;;;;;20.10;8.67;;;22.30;99.90;;;;;;4278599;29;657275;-90
2022/08/20 13:38:55;;;;;;;18.47;9.23;;;22.30;99.90;;;;;;4302162;29;657191;-89
2022/08/20 13:41:43;;;;;;;21.87;10.30;;;22.30;99.90;;;;;;4317236;29;656906;-88
2022/08/20 13:44:30;;;;;;;25.23;12.27;;;22.20;99.90;;;;;;4293101;29;657509;-88
2022/08/20 13:47:18;;;;;;;28.80;13.43;;;22.00;99.90;;;;;;4327255;28;657585;-88
2022/08/20 13:50:08;;;;;;;30.30;11.33;;;21.80;99.90;;;;;;4309596;28;657591;-88
2022/08/20 13:52:56;;;;;;;24.03;12.37;;;21.60;99.90;;;;;;4311376;28;657517;-88
2022/08/20 13:55:43;;;;;;;24.08;12.25;;;21.30;99.90;;;;;;4332603;28;658501;-88
2022/08/20 13:58:31;;;;;;;21.53;12.27;;;21.20;99.90;;;;;;4307870;28;657548;-88
2022/08/20 14:01:18;;;;;;;23.53;11.53;;;20.90;99.90;;;;;;4327153;28;658298;-89
2022/08/20 14:04:05;;;;;;;21.90;10.63;;;20.80;99.90;;;;;;4314564;28;657565;-89
2022/08/20 14:06:54;;;;;;;19.37;10.37;;;20.80;99.90;;;;;;4330008;28;658318;-87
2022/08/20 14:09:41;;;;;;;24.87;10.67;;;20.70;99.90;;;;;;4307012;28;657841;-88
2022/08/20 14:12:28;;;;;;;16.77;9.17;;;20.60;99.90;;;;;;4325005;28;657674;-86
2022/08/20 14:15:15;;;;;;;23.67;9.57;;;20.50;99.90;;;;;;4302950;28;656442;-87
2022/08/20 14:18:02;;;;;;;14.97;8.87;;;20.50;99.90;;;;;;4325455;28;656930;-86